createdAt,value
2018-05-01T00:01:23.404Z,52.90
2018-05-01T00:03:51.809Z,53.10
2018-05-01T00:06:19.482Z,53.10
2018-05-01T00:08:47.898Z,53.30
2018-05-01T00:11:15.549Z,53.20
2018-05-01T00:13:43.206Z,53.30
2018-05-01T00:16:10.853Z,53.40
2018-05-01T00:18:39.320Z,53.60
2018-05-01T00:21:06.973Z,53.60
2018-05-01T00:23:34.628Z,53.60
2018-05-01T00:26:03.041Z,53.80
2018-05-01T00:28:30.699Z,53.80
2018-05-01T00:30:58.349Z,53.70
2018-05-01T00:33:26.014Z,53.70
2018-05-01T00:35:53.661Z,53.80
2018-05-01T00:38:21.326Z,53.90
2018-05-01T00:40:48.988Z,54.50
2018-05-01T00:43:16.633Z,54.00
2018-05-01T00:45:45.066Z,54.10
2018-05-01T00:48:12.706Z,54.10
2018-05-01T00:50:40.404Z,54.10
2018-05-01T00:53:08.058Z,54.10
2018-05-01T00:55:35.737Z,54.10
2018-05-01T00:58:04.129Z,54.00
2018-05-01T01:00:32.598Z,54.00
2018-05-01T01:03:00.258Z,54.00
2018-05-01T01:05:27.914Z,54.00
2018-05-01T01:13:52.613Z,54.10
2018-05-01T01:16:21.029Z,54.10
2018-05-01T01:18:48.625Z,54.10
2018-05-01T01:21:16.565Z,54.20
2018-05-01T01:23:44.267Z,54.20
2018-05-01T01:26:11.921Z,54.20
2018-05-01T01:28:40.384Z,54.70
2018-05-01T01:31:08.786Z,54.40
2018-05-01T01:33:37.214Z,54.40
2018-05-01T01:36:04.399Z,54.30
2018-05-01T01:38:32.202Z,54.40
2018-05-01T01:41:00.162Z,54.30
2018-05-01T01:43:27.294Z,54.30
2018-05-01T01:45:55.225Z,54.20
2018-05-01T01:48:22.390Z,54.20
2018-05-01T01:50:49.500Z,54.20
2018-05-01T01:53:16.677Z,54.20
2018-05-01T01:55:44.595Z,53.90
2018-05-01T01:58:11.781Z,53.90
2018-05-01T02:00:39.697Z,53.80
2018-05-01T02:03:06.857Z,54.40
2018-05-01T02:05:34.774Z,53.80
2018-05-01T02:08:01.924Z,53.80
2018-05-01T02:10:29.085Z,53.70
2018-05-01T02:12:56.239Z,53.80
2018-05-01T02:15:23.409Z,53.70
2018-05-01T02:17:50.557Z,53.70
2018-05-01T02:20:18.462Z,53.70
2018-05-01T02:22:45.627Z,53.70
2018-05-01T02:25:13.516Z,53.80
2018-05-01T02:27:41.465Z,53.90
2018-05-01T02:30:08.605Z,53.80
2018-05-01T02:32:35.753Z,54.00
2018-05-01T02:35:02.933Z,53.90
2018-05-01T02:37:30.845Z,54.00
2018-05-01T02:39:58.774Z,54.10
2018-05-01T02:42:25.926Z,54.10
2018-05-01T02:44:53.071Z,54.20
2018-05-01T02:47:20.249Z,54.20
2018-05-01T02:49:48.139Z,54.40
2018-05-01T02:52:16.090Z,54.00
2018-05-01T02:54:43.244Z,54.40
2018-05-01T02:57:10.389Z,54.50
2018-05-01T02:59:38.327Z,54.60
2018-05-01T03:02:05.532Z,54.60
2018-05-01T03:04:32.731Z,54.60
2018-05-01T03:07:00.627Z,54.80
2018-05-01T03:09:28.521Z,54.90
2018-05-01T03:11:56.469Z,55.00
2018-05-01T03:14:23.623Z,55.00
2018-05-01T03:16:50.802Z,55.00
2018-05-01T03:19:17.949Z,55.10
2018-05-01T03:21:45.074Z,55.30
2018-05-01T03:24:12.257Z,55.40
2018-05-01T03:26:39.390Z,55.40
2018-05-01T03:29:06.557Z,55.60
2018-05-01T03:31:33.733Z,55.60
2018-05-01T03:34:00.890Z,55.60
2018-05-01T03:36:28.833Z,55.80
2018-05-01T03:38:55.981Z,55.80
2018-05-01T03:41:23.167Z,55.80
2018-05-01T03:43:50.317Z,55.90
2018-05-01T03:46:18.246Z,56.20
2018-05-01T03:48:45.425Z,56.10
2018-05-01T03:51:12.580Z,56.40
2018-05-01T03:53:39.739Z,56.60
2018-05-01T03:56:07.702Z,56.90
2018-05-01T03:58:34.838Z,56.90
2018-05-01T04:01:02.025Z,57.10
2018-05-01T04:03:29.156Z,57.40
2018-05-01T04:05:57.085Z,57.60
2018-05-01T04:08:24.223Z,57.60
2018-05-01T04:10:52.156Z,58.50
2018-05-01T04:13:19.321Z,58.50
2018-05-01T04:15:46.453Z,58.70
2018-05-01T04:18:15.177Z,59.10
2018-05-01T04:20:42.319Z,59.10
2018-05-01T04:23:10.250Z,59.50
2018-05-01T04:25:38.154Z,59.60
2018-05-01T04:28:06.110Z,59.50
2018-05-01T04:30:33.294Z,59.50
2018-05-01T04:33:00.453Z,59.60
2018-05-01T04:35:27.622Z,59.60
2018-05-01T04:37:54.757Z,59.70
2018-05-01T04:40:22.714Z,59.70
2018-05-01T04:42:49.858Z,59.70
2018-05-01T04:45:17.046Z,59.70
2018-05-01T04:47:44.194Z,59.60
2018-05-01T04:50:11.350Z,59.70
2018-05-01T04:52:39.267Z,59.80
2018-05-01T04:55:06.468Z,59.80
2018-05-01T04:57:34.400Z,60.00
2018-05-01T05:00:01.565Z,59.90
2018-05-01T05:02:28.699Z,60.00
2018-05-01T05:04:55.867Z,60.10
2018-05-01T05:07:23.005Z,60.10
2018-05-01T05:09:50.166Z,60.30
2018-05-01T05:12:17.365Z,60.30
2018-05-01T05:14:44.461Z,60.40
2018-05-01T05:17:11.572Z,60.50
2018-05-01T05:19:38.655Z,60.40
2018-05-01T05:22:05.772Z,60.40
2018-05-01T05:24:32.851Z,60.30
2018-05-01T05:26:59.957Z,60.30
2018-05-01T05:29:27.081Z,60.50
2018-05-01T05:31:54.160Z,60.40
2018-05-01T05:34:21.273Z,60.40
2018-05-01T05:36:48.351Z,60.40
2018-05-01T05:39:16.224Z,60.10
2018-05-01T05:41:43.336Z,60.10
2018-05-01T05:44:10.444Z,60.10
2018-05-01T05:46:38.313Z,59.90
2018-05-01T05:49:05.417Z,59.90
2018-05-01T05:51:32.570Z,59.90
2018-05-01T05:53:59.734Z,59.80
2018-05-01T05:56:27.638Z,60.70
2018-05-01T05:58:55.569Z,60.70
2018-05-01T06:01:22.701Z,60.70
2018-05-01T06:03:50.609Z,60.70
2018-05-01T06:06:17.741Z,60.70
2018-05-01T06:08:45.634Z,60.80
2018-05-01T06:11:13.562Z,60.90
2018-05-01T06:13:40.759Z,60.90
2018-05-01T06:16:07.898Z,60.60
2018-05-01T06:18:35.959Z,60.70
2018-05-01T06:21:03.093Z,60.60
2018-05-01T06:23:30.259Z,60.60
2018-05-01T06:25:57.398Z,60.50
2018-05-01T06:28:24.524Z,60.50
2018-05-01T06:30:51.686Z,60.50
2018-05-01T06:33:18.822Z,60.70
2018-05-01T06:35:45.989Z,60.90
2018-05-01T06:38:13.893Z,60.80
2018-05-01T06:40:41.054Z,60.90
2018-05-01T06:43:09.061Z,60.90
2018-05-01T06:45:36.201Z,61.00
2018-05-01T06:48:03.363Z,61.20
2018-05-01T06:50:30.485Z,61.20
2018-05-01T06:52:57.640Z,61.20
2018-05-01T06:55:25.554Z,61.20
2018-05-01T06:57:52.803Z,61.20
2018-05-01T07:00:19.893Z,61.30
2018-05-01T07:02:48.807Z,61.50
2018-05-01T07:05:15.940Z,61.60
2018-05-01T07:07:43.094Z,61.70
2018-05-01T07:10:11.021Z,62.70
2018-05-01T07:12:38.193Z,62.10
2018-05-01T07:15:05.334Z,62.30
2018-05-01T07:17:32.517Z,62.70
2018-05-01T07:19:59.716Z,62.80
2018-05-01T07:22:26.860Z,62.80
2018-05-01T07:24:53.999Z,62.80
2018-05-01T07:27:21.156Z,62.70
2018-05-01T07:29:48.318Z,62.70
2018-05-01T07:32:15.447Z,62.50
2018-05-01T07:34:42.621Z,62.60
2018-05-01T07:37:09.753Z,62.60
2018-05-01T07:39:36.885Z,62.60
2018-05-01T07:42:04.043Z,62.70
2018-05-01T07:44:31.177Z,62.80
2018-05-01T07:46:58.366Z,62.80
2018-05-01T07:49:25.522Z,62.90
2018-05-01T07:51:52.667Z,62.90
2018-05-01T07:54:20.621Z,62.70
2018-05-01T07:56:47.750Z,62.70
2018-05-01T07:59:14.922Z,62.70
2018-05-01T08:01:58.229Z,61.90
2018-05-01T08:04:26.187Z,61.50
2018-05-01T08:06:53.469Z,61.40
2018-05-01T08:09:21.359Z,60.40
2018-05-01T08:11:50.751Z,60.40
2018-05-01T08:14:15.637Z,60.00
2018-05-01T08:16:42.794Z,59.80
2018-05-01T08:19:09.937Z,59.80
2018-05-01T08:21:37.829Z,59.70
2018-05-01T08:24:05.740Z,59.80
2018-05-01T08:26:32.850Z,59.80
2018-05-01T08:29:00.005Z,59.80
2018-05-01T08:31:27.186Z,59.80
2018-05-01T08:33:54.307Z,59.80
2018-05-01T08:36:21.502Z,59.80
2018-05-01T08:38:49.380Z,59.80
2018-05-01T08:41:16.540Z,59.70
2018-05-01T08:43:43.698Z,59.80
2018-05-01T08:46:10.809Z,59.90
2018-05-01T08:48:37.973Z,59.90
2018-05-01T08:51:05.123Z,59.70
2018-05-01T08:53:32.281Z,59.50
2018-05-01T08:55:59.483Z,59.20
2018-05-01T08:58:26.593Z,59.00
2018-05-01T09:00:53.716Z,58.90
2018-05-01T09:03:20.833Z,59.20
2018-05-01T09:05:47.977Z,58.60
2018-05-01T09:08:15.869Z,58.60
2018-05-01T09:10:43.811Z,57.60
2018-05-01T09:13:10.958Z,57.60
2018-05-01T09:15:38.113Z,57.30
2018-05-01T09:18:07.162Z,56.80
2018-05-01T09:20:34.217Z,56.70
2018-05-01T09:23:01.391Z,56.80
2018-05-01T09:25:28.567Z,56.80
2018-05-01T09:27:55.693Z,56.80
2018-05-01T09:30:22.861Z,56.70
2018-05-01T09:32:53.901Z,56.30
2018-05-01T09:35:21.879Z,55.50
2018-05-01T09:37:49.042Z,55.50
2018-05-01T09:40:16.205Z,55.50
2018-05-01T09:42:43.434Z,55.50
2018-05-01T09:45:10.496Z,55.40
2018-05-01T09:47:38.358Z,55.30
2018-05-01T09:50:05.513Z,55.10
2018-05-01T09:52:33.126Z,55.10
2018-05-01T09:55:00.841Z,55.10
2018-05-01T09:57:28.547Z,55.20
2018-05-01T09:59:56.988Z,55.40
2018-05-01T10:02:24.762Z,55.30
2018-05-01T10:04:53.234Z,55.70
2018-05-01T10:07:20.877Z,55.70
2018-05-01T10:09:49.389Z,55.70
2018-05-01T10:12:17.108Z,55.70
2018-05-01T10:14:46.466Z,55.80
2018-05-01T10:17:14.703Z,55.70
2018-05-01T10:19:42.450Z,55.40
2018-05-01T10:22:10.114Z,55.40
2018-05-01T10:24:38.542Z,55.10
2018-05-01T10:27:06.181Z,55.00
2018-05-01T10:29:33.857Z,55.00
2018-05-01T10:35:00.547Z,54.40
2018-05-01T10:37:28.329Z,54.30
2018-05-01T10:39:55.974Z,54.20
2018-05-01T10:42:23.590Z,53.90
2018-05-01T10:44:51.335Z,53.70
2018-05-01T10:47:18.960Z,53.60
2018-05-01T10:49:47.392Z,53.60
2018-05-01T10:52:15.057Z,53.50
2018-05-01T10:54:42.700Z,53.60
2018-05-01T10:57:10.337Z,53.20
2018-05-01T10:59:37.976Z,52.90
2018-05-01T11:02:05.638Z,52.40
2018-05-01T11:04:33.279Z,52.90
2018-05-01T11:07:01.711Z,51.60
2018-05-01T11:09:29.327Z,51.60
2018-05-01T11:11:57.024Z,50.80
2018-05-01T11:14:24.617Z,50.60
2018-05-01T11:16:52.222Z,50.10
2018-05-01T11:19:19.800Z,49.80
2018-05-01T11:21:47.393Z,49.70
2018-05-01T11:24:15.780Z,49.40
2018-05-01T11:26:43.374Z,49.40
2018-05-01T11:29:10.985Z,49.30
2018-05-01T11:31:39.324Z,49.30
2018-05-01T11:34:06.916Z,49.10
2018-05-01T11:36:34.489Z,49.00
2018-05-01T11:39:02.101Z,48.90
2018-05-01T11:41:29.732Z,48.30
2018-05-01T11:43:58.074Z,48.60
2018-05-01T11:46:25.764Z,47.90
2018-05-01T11:48:53.285Z,47.60
2018-05-01T11:51:35.259Z,47.70
2018-05-01T11:54:02.858Z,47.50
2018-05-01T11:56:30.501Z,47.30
2018-05-01T11:58:58.134Z,47.30
2018-05-01T12:01:25.774Z,47.00
2018-05-01T12:03:53.417Z,46.90
2018-05-01T12:06:21.050Z,46.30
2018-05-01T12:08:48.668Z,45.60
2018-05-01T12:11:16.269Z,45.70
2018-05-01T12:13:43.967Z,45.40
2018-05-01T12:16:11.631Z,45.40
2018-05-01T12:18:39.386Z,45.70
2018-05-01T12:21:06.957Z,46.00
2018-05-01T12:23:34.652Z,46.20
2018-05-01T12:26:02.278Z,46.50
2018-05-01T12:28:29.909Z,46.60
2018-05-01T12:30:57.567Z,46.50
2018-05-01T12:33:25.217Z,46.30
2018-05-01T12:35:53.639Z,46.00
2018-05-01T12:38:21.358Z,45.90
2018-05-01T12:40:49.041Z,45.70
2018-05-01T12:43:16.671Z,45.40
2018-05-01T12:45:44.345Z,44.90
2018-05-01T12:48:12.055Z,44.80
2018-05-01T12:50:40.405Z,44.80
2018-05-01T12:53:08.053Z,44.70
2018-05-01T12:55:35.678Z,44.70
2018-05-01T12:58:05.001Z,45.00
2018-05-01T13:00:33.419Z,44.50
2018-05-01T13:03:01.102Z,44.40
2018-05-01T13:08:28.103Z,45.20
2018-05-01T13:10:55.744Z,45.10
2018-05-01T13:13:23.373Z,45.00
2018-05-01T13:15:51.788Z,45.30
2018-05-01T13:18:20.178Z,45.10
2018-05-01T13:20:47.908Z,45.00
2018-05-01T13:23:15.573Z,45.00
2018-05-01T13:25:43.972Z,43.70
2018-05-01T13:28:12.398Z,43.40
2018-05-01T13:30:40.041Z,43.20
2018-05-01T13:33:07.673Z,42.80
2018-05-01T13:35:35.354Z,43.00
2018-05-01T13:38:03.002Z,42.30
2018-05-01T13:40:30.710Z,42.60
2018-05-01T13:42:59.170Z,42.80
2018-05-01T13:45:26.817Z,42.70
2018-05-01T13:47:55.262Z,43.10
2018-05-01T13:50:22.933Z,43.10
2018-05-01T13:52:50.637Z,43.10
2018-05-01T13:55:18.351Z,43.50
2018-05-01T13:57:46.027Z,43.60
2018-05-01T14:00:13.695Z,43.50
2018-05-01T14:02:41.390Z,43.70
2018-05-01T14:05:15.361Z,43.30
2018-05-01T14:07:43.005Z,43.30
2018-05-01T14:10:10.649Z,42.90
2018-05-01T14:12:38.282Z,43.20
2018-05-01T14:15:05.929Z,43.20
2018-05-01T14:17:33.588Z,43.70
2018-05-01T14:20:01.220Z,43.60
2018-05-01T14:22:28.963Z,43.70
2018-05-01T14:24:56.578Z,44.20
2018-05-01T14:27:24.236Z,44.30
2018-05-01T14:29:51.923Z,43.80
2018-05-01T14:32:19.681Z,43.60
2018-05-01T14:34:47.673Z,43.30
2018-05-01T14:37:15.301Z,43.30
2018-05-01T14:39:44.143Z,43.30
2018-05-01T14:42:11.856Z,43.20
2018-05-01T14:44:39.460Z,43.20
2018-05-01T14:47:07.114Z,43.30
2018-05-01T14:49:34.759Z,43.30
2018-05-01T14:52:03.105Z,43.30
2018-05-01T14:54:57.493Z,43.10
2018-05-01T14:57:25.169Z,43.00
2018-05-01T14:59:52.855Z,42.60
2018-05-01T15:02:21.907Z,42.40
2018-05-01T15:04:49.565Z,42.40
2018-05-01T15:07:17.994Z,42.60
2018-05-01T15:09:46.112Z,42.20
2018-05-01T15:12:13.930Z,42.00
2018-05-01T15:14:41.569Z,42.40
2018-05-01T15:17:09.988Z,42.00
2018-05-01T15:19:37.628Z,42.00
2018-05-01T15:22:05.426Z,42.00
2018-05-01T15:24:33.090Z,42.00
2018-05-01T15:33:06.057Z,41.90
2018-05-01T15:35:34.469Z,42.20
2018-05-01T15:38:02.226Z,42.10
2018-05-01T15:40:29.960Z,42.70
2018-05-01T15:42:58.320Z,43.50
2018-05-01T15:45:25.982Z,42.80
2018-05-01T15:47:53.622Z,43.30
2018-05-01T15:50:21.272Z,42.80
2018-05-01T15:52:48.932Z,42.70
2018-05-01T15:55:16.558Z,43.00
2018-05-01T15:57:44.988Z,43.10
2018-05-01T16:00:12.640Z,43.00
2018-05-01T16:02:40.289Z,43.20
2018-05-01T16:05:07.971Z,43.10
2018-05-01T16:07:35.639Z,43.10
2018-05-01T16:10:03.407Z,43.00
2018-05-01T16:12:31.033Z,43.00
2018-05-01T16:14:59.454Z,43.90
2018-05-01T16:17:27.830Z,44.30
2018-05-01T16:19:55.496Z,44.20
2018-05-01T16:22:23.106Z,44.70
2018-05-01T16:24:50.762Z,44.80
2018-05-01T16:27:18.390Z,44.70
2018-05-01T16:29:46.098Z,44.60
2018-05-01T16:32:14.527Z,44.50
2018-05-01T16:34:42.994Z,44.70
2018-05-01T16:37:10.665Z,44.60
2018-05-01T16:39:38.289Z,45.00
2018-05-01T16:42:05.971Z,45.40
2018-05-01T16:44:33.620Z,45.60
2018-05-01T16:47:01.247Z,46.00
2018-05-01T16:49:28.859Z,46.60
2018-05-01T16:51:56.547Z,46.60
2018-05-01T16:54:24.161Z,46.20
2018-05-01T16:56:51.858Z,46.30
2018-05-01T16:59:20.260Z,46.70
2018-05-01T17:01:47.873Z,47.10
2018-05-01T17:04:16.336Z,47.10
2018-05-01T17:06:43.970Z,47.10
2018-05-01T17:09:11.661Z,47.10
2018-05-01T17:11:40.063Z,46.70
2018-05-01T17:14:07.737Z,46.70
2018-05-01T17:16:35.393Z,47.40
2018-05-01T17:19:03.018Z,47.60
2018-05-01T17:21:30.680Z,48.30
2018-05-01T17:23:58.306Z,48.70
2018-05-01T17:26:26.010Z,48.30
2018-05-01T17:28:53.689Z,47.90
2018-05-01T17:31:21.301Z,47.90
2018-05-01T17:33:49.880Z,48.80
2018-05-01T17:36:17.532Z,48.80
2018-05-01T17:38:45.224Z,49.20
2018-05-01T17:41:12.857Z,49.50
2018-05-01T17:43:40.538Z,49.70
2018-05-01T17:46:08.158Z,49.90
2018-05-01T17:48:35.817Z,50.00
2018-05-01T17:51:03.502Z,49.80
2018-05-01T17:53:31.143Z,49.80
2018-05-01T17:55:58.802Z,50.20
2018-05-01T17:58:26.434Z,51.40
2018-05-01T18:00:54.098Z,51.00
2018-05-01T18:03:21.729Z,51.50
2018-05-01T18:05:50.399Z,52.00
2018-05-01T18:08:18.033Z,52.30
2018-05-01T18:10:45.675Z,52.30
2018-05-01T18:19:12.686Z,52.80
2018-05-01T18:21:40.334Z,53.10
2018-05-01T18:24:09.366Z,53.30
2018-05-01T18:26:37.920Z,54.00
2018-05-01T18:29:05.687Z,54.00
2018-05-01T18:31:44.353Z,54.60
2018-05-01T18:34:12.928Z,55.30
2018-05-01T18:36:40.561Z,54.60
2018-05-01T18:39:08.258Z,55.20
2018-05-01T18:41:35.950Z,55.50
2018-05-01T18:44:03.586Z,55.50
2018-05-01T18:46:31.261Z,55.60
2018-05-01T18:48:58.908Z,55.90
2018-05-01T18:51:27.049Z,56.20
2018-05-01T18:53:55.251Z,56.40
2018-05-01T18:56:22.894Z,56.70
2018-05-01T18:58:50.547Z,57.00
2018-05-01T19:01:18.972Z,57.80
2018-05-01T19:03:46.703Z,57.20
2018-05-01T19:06:14.344Z,57.20
2018-05-01T19:09:01.713Z,57.80
2018-05-01T19:11:29.517Z,58.20
2018-05-01T19:13:57.198Z,58.60
2018-05-01T19:16:24.959Z,58.90
2018-05-01T19:18:52.863Z,59.10
2018-05-01T19:21:20.657Z,58.80
2018-05-01T19:23:48.405Z,59.00
2018-05-01T19:26:16.585Z,59.20
2018-05-01T19:28:45.297Z,59.50
2018-05-01T19:31:13.174Z,59.50
2018-05-01T19:33:41.093Z,59.90
2018-05-01T19:36:08.889Z,59.90
2018-05-01T19:38:37.137Z,60.00
2018-05-01T19:41:04.990Z,60.00
2018-05-01T19:43:32.674Z,60.10
2018-05-01T19:46:00.964Z,60.10
2018-05-01T19:48:28.634Z,60.10
2018-05-01T19:50:57.448Z,60.40
2018-05-01T19:53:25.408Z,61.80
2018-05-01T19:56:19.971Z,62.30
2018-05-01T19:58:48.169Z,62.20
2018-05-01T20:01:16.110Z,62.10
2018-05-01T20:03:44.582Z,62.20
2018-05-01T20:06:12.429Z,62.20
2018-05-01T20:08:41.270Z,62.80
2018-05-01T20:11:10.028Z,62.80
2018-05-01T20:13:38.153Z,63.20
2018-05-01T20:16:06.152Z,63.40
2018-05-01T20:18:34.852Z,64.60
2018-05-01T20:21:02.667Z,64.00
2018-05-01T20:23:31.992Z,64.50
2018-05-01T20:26:00.440Z,64.60
2018-05-01T20:28:28.106Z,64.60
2018-05-01T20:30:56.912Z,65.00
2018-05-01T20:33:26.561Z,65.30
2018-05-01T20:35:54.427Z,65.10
2018-05-01T20:38:22.106Z,65.40
2018-05-01T20:40:49.750Z,65.70
2018-05-01T20:43:17.370Z,65.90
2018-05-01T20:45:45.030Z,66.00
2018-05-01T20:48:20.109Z,66.10
2018-05-01T20:50:48.890Z,66.30
2018-05-01T20:53:16.574Z,66.30
2018-05-01T20:55:44.223Z,66.40
2018-05-01T20:58:13.965Z,66.70
2018-05-01T21:00:42.454Z,67.10
2018-05-01T21:03:11.213Z,67.10
2018-05-01T21:05:38.862Z,67.10
2018-05-01T21:08:06.506Z,67.10
2018-05-01T21:10:34.651Z,67.40
2018-05-01T21:13:02.320Z,67.70
2018-05-01T21:15:30.083Z,68.20
2018-05-01T21:17:57.714Z,68.50
2018-05-01T21:20:25.609Z,68.90
2018-05-01T21:22:53.390Z,69.30
2018-05-01T21:25:21.731Z,69.50
2018-05-01T21:27:49.405Z,69.70
2018-05-01T21:30:17.118Z,69.90
2018-05-01T21:33:05.342Z,70.10
2018-05-01T21:35:33.003Z,70.10
2018-05-01T21:38:01.666Z,70.30
2018-05-01T21:40:29.306Z,70.20
2018-05-01T21:42:56.984Z,70.40
2018-05-01T21:45:25.393Z,71.00
2018-05-01T21:47:53.057Z,70.90
2018-05-01T21:50:21.482Z,71.30
2018-05-01T21:52:49.159Z,71.30
2018-05-01T21:55:17.702Z,71.60
2018-05-01T21:57:45.572Z,71.60
2018-05-01T22:00:14.040Z,71.70
2018-05-01T22:02:41.646Z,71.70
2018-05-01T22:05:09.277Z,71.80
2018-05-01T22:16:26.683Z,72.20
2018-05-01T22:18:54.357Z,72.60
2018-05-01T22:21:22.005Z,72.80
2018-05-01T22:23:49.645Z,72.90
2018-05-01T22:26:17.331Z,73.10
2018-05-01T22:28:44.988Z,73.00
2018-05-01T22:31:13.402Z,73.00
2018-05-01T22:33:41.046Z,72.90
2018-05-01T22:36:08.706Z,73.10
2018-05-01T22:38:36.406Z,73.10
2018-05-01T22:41:04.041Z,73.30
2018-05-01T22:43:32.501Z,73.70
2018-05-01T22:46:00.147Z,73.80
2018-05-01T22:48:28.537Z,74.10
2018-05-01T22:50:56.959Z,74.30
2018-05-01T22:53:24.586Z,74.20
2018-05-01T22:55:52.282Z,74.50
2018-05-01T22:58:19.937Z,74.40
2018-05-01T23:00:47.596Z,74.40
2018-05-01T23:03:16.021Z,74.50
2018-05-01T23:05:43.674Z,74.50
2018-05-01T23:08:12.129Z,74.90
2018-05-01T23:10:39.760Z,74.80
2018-05-01T23:13:07.427Z,75.00
2018-05-01T23:15:35.130Z,75.10
2018-05-01T23:18:02.726Z,75.10
2018-05-01T23:20:31.141Z,75.10
2018-05-01T23:22:59.536Z,75.60
2018-05-01T23:25:28.000Z,75.70
2018-05-01T23:27:55.651Z,75.70
2018-05-01T23:30:23.269Z,75.90
2018-05-01T23:32:50.946Z,76.00
2018-05-01T23:35:18.577Z,76.20
2018-05-01T23:37:46.239Z,76.10
2018-05-01T23:40:13.870Z,76.10
2018-05-01T23:42:41.509Z,76.10
2018-05-01T23:45:09.346Z,76.20
2018-05-01T23:47:36.978Z,76.30
2018-05-01T23:50:04.635Z,77.30
2018-05-01T23:52:33.082Z,76.80
2018-05-01T23:55:00.700Z,76.70
2018-05-01T23:57:28.346Z,76.90
2018-05-01T23:59:55.968Z,77.00
